KSVH

Statesville Regional Airport

Statesville, North Carolina, USA
METAR KSVH 140720Z AUTO 02004KT 10SM OVC037 06/M01 A3028 RMK AO2 T00551008
Observed Flight Rules
Dec-14 @ 07:20 UTC (21 minutes ago) Visual Flight Rules
Wind Visibility Clouds
20° at 4 knots 10 miles
  • Overcast at 3,700' AGL
Temperatures Readings
Current 6°C / 43°F
Dewpoint -1°C / 30°F
Humidity 61%
Altimeter 30.28" Hg
Pressure 1025 hPa
Elevation 294
METAR KSVH 140720Z AUTO 02004KT 10SM OVC037 06/M01 A3028 RMK AO2 T00551008
Observed Flight Rules
Dec-14 @ 07:20 UTC
(21 minutes ago)
VFR
Wind Visibility
20° at 4 knots 10 miles
Clouds
  • Overcast at 3,700' AGL
Temperature Dewpoint
6°C / 43°F -1°C / 30°F
Humidity Altimeter Pressure
61% 30.28" Hg 1025 hPa